sensor_id;sensor_type;location;lat;lon;timestamp;P1;durP1;ratioP1;P2;durP2;ratioP2
40256;SDS011;25977;45.462;9.210;2023-11-18T00:00:27;0.52;;;0.30;;
40256;SDS011;25977;45.462;9.210;2023-11-18T00:02:52;2.17;;;0.38;;
40256;SDS011;25977;45.462;9.210;2023-11-18T00:05:19;0.38;;;0.20;;
40256;SDS011;25977;45.462;9.210;2023-11-18T00:07:45;0.20;;;0.20;;
40256;SDS011;25977;45.462;9.210;2023-11-18T00:10:11;0.40;;;0.20;;
40256;SDS011;25977;45.462;9.210;2023-11-18T00:12:37;0.30;;;0.30;;
40256;SDS011;25977;45.462;9.210;2023-11-18T00:15:07;1.40;;;0.20;;
40256;SDS011;25977;45.462;9.210;2023-11-18T00:17:35;1.85;;;0.75;;
40256;SDS011;25977;45.462;9.210;2023-11-18T00:20:01;2.15;;;0.50;;
40256;SDS011;25977;45.462;9.210;2023-11-18T00:22:34;1.15;;;0.55;;
40256;SDS011;25977;45.462;9.210;2023-11-18T00:25:01;0.60;;;0.60;;
40256;SDS011;25977;45.462;9.210;2023-11-18T00:27:30;0.70;;;0.70;;
40256;SDS011;25977;45.462;9.210;2023-11-18T00:29:56;2.95;;;0.85;;
40256;SDS011;25977;45.462;9.210;2023-11-18T00:32:22;1.45;;;0.60;;
40256;SDS011;25977;45.462;9.210;2023-11-18T00:34:47;1.55;;;0.75;;
40256;SDS011;25977;45.462;9.210;2023-11-18T00:37:13;0.57;;;0.57;;
40256;SDS011;25977;45.462;9.210;2023-11-18T00:39:39;1.15;;;0.52;;
40256;SDS011;25977;45.462;9.210;2023-11-18T00:42:04;0.63;;;0.60;;
40256;SDS011;25977;45.462;9.210;2023-11-18T00:44:30;0.85;;;0.50;;
40256;SDS011;25977;45.462;9.210;2023-11-18T00:46:56;3.08;;;0.45;;
40256;SDS011;25977;45.462;9.210;2023-11-18T00:49:23;0.63;;;0.30;;
40256;SDS011;25977;45.462;9.210;2023-11-18T00:51:48;0.35;;;0.35;;
40256;SDS011;25977;45.462;9.210;2023-11-18T00:54:14;3.15;;;0.68;;
40256;SDS011;25977;45.462;9.210;2023-11-18T00:56:40;1.83;;;0.73;;
40256;SDS011;25977;45.462;9.210;2023-11-18T00:59:06;2.50;;;0.50;;
40256;SDS011;25977;45.462;9.210;2023-11-18T01:01:32;0.85;;;0.60;;
40256;SDS011;25977;45.462;9.210;2023-11-18T01:03:57;0.60;;;0.60;;
40256;SDS011;25977;45.462;9.210;2023-11-18T01:06:25;0.88;;;0.88;;
40256;SDS011;25977;45.462;9.210;2023-11-18T01:08:51;1.85;;;0.75;;
40256;SDS011;25977;45.462;9.210;2023-11-18T01:11:17;1.20;;;0.65;;
40256;SDS011;25977;45.462;9.210;2023-11-18T01:13:49;0.60;;;0.60;;
40256;SDS011;25977;45.462;9.210;2023-11-18T01:16:15;0.40;;;0.40;;
40256;SDS011;25977;45.462;9.210;2023-11-18T01:18:42;3.10;;;0.73;;
40256;SDS011;25977;45.462;9.210;2023-11-18T01:21:08;0.88;;;0.50;;
40256;SDS011;25977;45.462;9.210;2023-11-18T01:23:35;0.40;;;0.40;;
40256;SDS011;25977;45.462;9.210;2023-11-18T01:26:01;2.22;;;0.50;;
40256;SDS011;25977;45.462;9.210;2023-11-18T01:28:30;0.30;;;0.20;;
40256;SDS011;25977;45.462;9.210;2023-11-18T01:31:04;0.88;;;0.85;;
40256;SDS011;25977;45.462;9.210;2023-11-18T01:33:32;3.80;;;0.90;;
40256;SDS011;25977;45.462;9.210;2023-11-18T01:35:58;2.95;;;0.70;;
40256;SDS011;25977;45.462;9.210;2023-11-18T01:38:25;0.95;;;0.70;;
40256;SDS011;25977;45.462;9.210;2023-11-18T01:40:51;3.42;;;0.70;;
40256;SDS011;25977;45.462;9.210;2023-11-18T01:43:18;1.00;;;0.60;;
40256;SDS011;25977;45.462;9.210;2023-11-18T01:45:44;0.52;;;0.52;;
40256;SDS011;25977;45.462;9.210;2023-11-18T01:48:10;0.57;;;0.57;;
40256;SDS011;25977;45.462;9.210;2023-11-18T01:50:36;3.17;;;0.98;;
40256;SDS011;25977;45.462;9.210;2023-11-18T01:53:04;2.83;;;0.68;;
40256;SDS011;25977;45.462;9.210;2023-11-18T01:55:30;1.00;;;0.70;;
40256;SDS011;25977;45.462;9.210;2023-11-18T01:57:56;1.58;;;0.90;;
40256;SDS011;25977;45.462;9.210;2023-11-18T02:00:24;0.43;;;0.43;;
40256;SDS011;25977;45.462;9.210;2023-11-18T02:02:49;1.58;;;0.82;;
40256;SDS011;25977;45.462;9.210;2023-11-18T02:05:15;1.35;;;0.85;;
40256;SDS011;25977;45.462;9.210;2023-11-18T02:07:43;0.65;;;0.57;;
40256;SDS011;25977;45.462;9.210;2023-11-18T02:10:09;2.80;;;0.95;;
40256;SDS011;25977;45.462;9.210;2023-11-18T02:12:40;1.30;;;0.60;;
40256;SDS011;25977;45.462;9.210;2023-11-18T02:15:08;1.60;;;0.82;;
40256;SDS011;25977;45.462;9.210;2023-11-18T02:17:38;1.80;;;0.60;;
40256;SDS011;25977;45.462;9.210;2023-11-18T02:20:04;2.78;;;1.20;;
40256;SDS011;25977;45.462;9.210;2023-11-18T02:22:45;0.80;;;0.60;;
40256;SDS011;25977;45.462;9.210;2023-11-18T02:25:17;1.42;;;0.95;;
40256;SDS011;25977;45.462;9.210;2023-11-18T02:27:44;1.35;;;1.25;;
40256;SDS011;25977;45.462;9.210;2023-11-18T02:30:11;0.82;;;0.77;;
40256;SDS011;25977;45.462;9.210;2023-11-18T02:35:28;3.38;;;0.90;;
40256;SDS011;25977;45.462;9.210;2023-11-18T02:38:00;0.70;;;0.70;;
40256;SDS011;25977;45.462;9.210;2023-11-18T02:40:29;0.70;;;0.70;;
40256;SDS011;25977;45.462;9.210;2023-11-18T02:45:26;1.65;;;0.85;;
40256;SDS011;25977;45.462;9.210;2023-11-18T02:47:53;1.40;;;0.73;;
40256;SDS011;25977;45.462;9.210;2023-11-18T02:50:25;1.85;;;0.75;;
40256;SDS011;25977;45.462;9.210;2023-11-18T02:52:52;0.88;;;0.70;;
40256;SDS011;25977;45.462;9.210;2023-11-18T02:55:19;2.38;;;0.65;;
40256;SDS011;25977;45.462;9.210;2023-11-18T02:57:48;0.60;;;0.60;;
40256;SDS011;25977;45.462;9.210;2023-11-18T03:00:14;2.22;;;0.63;;
40256;SDS011;25977;45.462;9.210;2023-11-18T03:02:47;3.00;;;1.20;;
40256;SDS011;25977;45.462;9.210;2023-11-18T03:05:13;1.05;;;1.00;;
40256;SDS011;25977;45.462;9.210;2023-11-18T03:07:44;1.10;;;0.90;;
40256;SDS011;25977;45.462;9.210;2023-11-18T03:10:17;0.60;;;0.52;;
40256;SDS011;25977;45.462;9.210;2023-11-18T03:12:49;4.55;;;0.85;;
40256;SDS011;25977;45.462;9.210;2023-11-18T03:15:17;2.30;;;0.77;;
40256;SDS011;25977;45.462;9.210;2023-11-18T03:17:49;2.67;;;1.20;;
40256;SDS011;25977;45.462;9.210;2023-11-18T03:20:16;2.58;;;0.70;;
40256;SDS011;25977;45.462;9.210;2023-11-18T03:22:46;3.05;;;0.98;;
40256;SDS011;25977;45.462;9.210;2023-11-18T03:25:13;5.32;;;1.25;;
40256;SDS011;25977;45.462;9.210;2023-11-18T03:27:39;1.75;;;0.40;;
40256;SDS011;25977;45.462;9.210;2023-11-18T03:30:05;1.38;;;1.27;;
40256;SDS011;25977;45.462;9.210;2023-11-18T03:32:33;1.00;;;0.98;;
40256;SDS011;25977;45.462;9.210;2023-11-18T03:35:02;0.90;;;0.90;;
40256;SDS011;25977;45.462;9.210;2023-11-18T03:37:37;1.58;;;0.70;;
40256;SDS011;25977;45.462;9.210;2023-11-18T03:40:10;0.90;;;0.90;;
40256;SDS011;25977;45.462;9.210;2023-11-18T03:42:37;1.30;;;0.60;;
40256;SDS011;25977;45.462;9.210;2023-11-18T03:45:03;0.90;;;0.70;;
40256;SDS011;25977;45.462;9.210;2023-11-18T03:47:30;5.43;;;1.13;;
40256;SDS011;25977;45.462;9.210;2023-11-18T03:49:56;3.42;;;0.50;;
40256;SDS011;25977;45.462;9.210;2023-11-18T03:52:22;0.63;;;0.63;;
40256;SDS011;25977;45.462;9.210;2023-11-18T03:54:48;0.68;;;0.68;;
40256;SDS011;25977;45.462;9.210;2023-11-18T03:57:14;0.85;;;0.70;;
40256;SDS011;25977;45.462;9.210;2023-11-18T03:59:40;1.52;;;0.77;;
40256;SDS011;25977;45.462;9.210;2023-11-18T04:02:06;1.15;;;0.85;;
40256;SDS011;25977;45.462;9.210;2023-11-18T04:04:32;2.08;;;0.95;;
40256;SDS011;25977;45.462;9.210;2023-11-18T04:06:58;1.45;;;1.05;;
40256;SDS011;25977;45.462;9.210;2023-11-18T04:09:26;5.43;;;1.33;;
40256;SDS011;25977;45.462;9.210;2023-11-18T04:11:52;2.67;;;0.80;;
40256;SDS011;25977;45.462;9.210;2023-11-18T04:14:18;0.75;;;0.70;;
40256;SDS011;25977;45.462;9.210;2023-11-18T04:16:47;0.73;;;0.73;;
40256;SDS011;25977;45.462;9.210;2023-11-18T04:19:15;1.15;;;1.05;;
40256;SDS011;25977;45.462;9.210;2023-11-18T04:21:41;1.48;;;0.80;;
40256;SDS011;25977;45.462;9.210;2023-11-18T04:24:06;1.50;;;0.70;;
40256;SDS011;25977;45.462;9.210;2023-11-18T04:26:32;1.48;;;1.30;;
40256;SDS011;25977;45.462;9.210;2023-11-18T04:28:58;5.47;;;1.90;;
40256;SDS011;25977;45.462;9.210;2023-11-18T04:31:24;2.63;;;1.15;;
40256;SDS011;25977;45.462;9.210;2023-11-18T04:33:50;3.00;;;0.95;;
40256;SDS011;25977;45.462;9.210;2023-11-18T04:36:16;2.78;;;1.17;;
40256;SDS011;25977;45.462;9.210;2023-11-18T04:38:44;2.30;;;1.10;;
40256;SDS011;25977;45.462;9.210;2023-11-18T04:41:10;1.25;;;0.98;;
40256;SDS011;25977;45.462;9.210;2023-11-18T04:43:36;3.25;;;1.17;;
40256;SDS011;25977;45.462;9.210;2023-11-18T04:46:05;1.08;;;0.98;;
40256;SDS011;25977;45.462;9.210;2023-11-18T04:48:31;5.47;;;1.33;;
40256;SDS011;25977;45.462;9.210;2023-11-18T04:50:58;0.95;;;0.90;;
40256;SDS011;25977;45.462;9.210;2023-11-18T04:53:23;1.55;;;1.13;;
40256;SDS011;25977;45.462;9.210;2023-11-18T04:55:51;1.75;;;1.15;;
40256;SDS011;25977;45.462;9.210;2023-11-18T04:58:16;1.40;;;1.15;;
40256;SDS011;25977;45.462;9.210;2023-11-18T05:00:42;1.25;;;1.10;;
40256;SDS011;25977;45.462;9.210;2023-11-18T05:03:08;1.48;;;1.38;;
40256;SDS011;25977;45.462;9.210;2023-11-18T05:05:37;1.63;;;0.90;;
40256;SDS011;25977;45.462;9.210;2023-11-18T05:08:04;1.52;;;1.42;;
40256;SDS011;25977;45.462;9.210;2023-11-18T05:10:33;2.08;;;1.25;;
40256;SDS011;25977;45.462;9.210;2023-11-18T05:13:00;1.55;;;1.38;;
40256;SDS011;25977;45.462;9.210;2023-11-18T05:15:26;3.38;;;1.20;;
40256;SDS011;25977;45.462;9.210;2023-11-18T05:17:54;1.83;;;1.10;;
40256;SDS011;25977;45.462;9.210;2023-11-18T05:20:21;1.50;;;1.25;;
40256;SDS011;25977;45.462;9.210;2023-11-18T05:22:47;3.22;;;1.80;;
40256;SDS011;25977;45.462;9.210;2023-11-18T05:25:13;1.88;;;1.70;;
40256;SDS011;25977;45.462;9.210;2023-11-18T05:27:39;2.47;;;2.20;;
40256;SDS011;25977;45.462;9.210;2023-11-18T05:30:06;1.60;;;1.50;;
40256;SDS011;25977;45.462;9.210;2023-11-18T05:32:35;13.32;;;2.33;;
40256;SDS011;25977;45.462;9.210;2023-11-18T05:35:01;2.83;;;1.63;;
40256;SDS011;25977;45.462;9.210;2023-11-18T05:37:30;2.10;;;1.30;;
40256;SDS011;25977;45.462;9.210;2023-11-18T05:40:01;2.50;;;1.60;;
40256;SDS011;25977;45.462;9.210;2023-11-18T05:42:34;2.90;;;1.25;;
40256;SDS011;25977;45.462;9.210;2023-11-18T05:45:05;2.20;;;1.48;;
40256;SDS011;25977;45.462;9.210;2023-11-18T05:47:32;2.25;;;1.25;;
40256;SDS011;25977;45.462;9.210;2023-11-18T05:49:59;4.65;;;1.42;;
40256;SDS011;25977;45.462;9.210;2023-11-18T05:52:25;3.75;;;1.15;;
40256;SDS011;25977;45.462;9.210;2023-11-18T05:54:51;3.35;;;1.15;;
40256;SDS011;25977;45.462;9.210;2023-11-18T05:57:16;1.80;;;1.20;;
40256;SDS011;25977;45.462;9.210;2023-11-18T05:59:43;3.58;;;1.77;;
40256;SDS011;25977;45.462;9.210;2023-11-18T06:02:09;2.00;;;0.82;;
40256;SDS011;25977;45.462;9.210;2023-11-18T06:04:42;2.75;;;1.17;;
40256;SDS011;25977;45.462;9.210;2023-11-18T06:07:08;5.40;;;0.82;;
40256;SDS011;25977;45.462;9.210;2023-11-18T06:09:34;3.70;;;0.98;;
40256;SDS011;25977;45.462;9.210;2023-11-18T06:11:59;2.33;;;0.88;;
40256;SDS011;25977;45.462;9.210;2023-11-18T06:14:26;1.00;;;0.90;;
40256;SDS011;25977;45.462;9.210;2023-11-18T06:16:51;1.95;;;0.90;;
40256;SDS011;25977;45.462;9.210;2023-11-18T06:19:17;3.60;;;1.77;;
40256;SDS011;25977;45.462;9.210;2023-11-18T06:21:43;2.42;;;1.00;;
40256;SDS011;25977;45.462;9.210;2023-11-18T06:24:09;3.95;;;0.95;;
40256;SDS011;25977;45.462;9.210;2023-11-18T06:26:36;3.88;;;0.80;;
40256;SDS011;25977;45.462;9.210;2023-11-18T06:29:02;1.08;;;0.98;;
40256;SDS011;25977;45.462;9.210;2023-11-18T06:31:29;1.33;;;0.60;;
40256;SDS011;25977;45.462;9.210;2023-11-18T06:33:54;2.55;;;0.90;;
40256;SDS011;25977;45.462;9.210;2023-11-18T06:36:20;2.67;;;0.88;;
40256;SDS011;25977;45.462;9.210;2023-11-18T06:38:48;1.73;;;1.15;;
40256;SDS011;25977;45.462;9.210;2023-11-18T06:41:18;3.42;;;0.63;;
40256;SDS011;25977;45.462;9.210;2023-11-18T06:43:48;2.70;;;0.90;;
40256;SDS011;25977;45.462;9.210;2023-11-18T06:46:23;1.38;;;1.13;;
40256;SDS011;25977;45.462;9.210;2023-11-18T06:48:51;2.60;;;1.40;;
40256;SDS011;25977;45.462;9.210;2023-11-18T06:51:21;10.23;;;1.50;;
40256;SDS011;25977;45.462;9.210;2023-11-18T06:53:50;3.83;;;0.73;;
40256;SDS011;25977;45.462;9.210;2023-11-18T06:56:19;5.85;;;1.10;;
40256;SDS011;25977;45.462;9.210;2023-11-18T06:58:45;4.88;;;1.25;;
40256;SDS011;25977;45.462;9.210;2023-11-18T07:01:14;4.57;;;1.08;;
40256;SDS011;25977;45.462;9.210;2023-11-18T07:03:43;3.47;;;1.33;;
40256;SDS011;25977;45.462;9.210;2023-11-18T07:06:10;7.55;;;1.35;;
40256;SDS011;25977;45.462;9.210;2023-11-18T07:08:36;4.35;;;1.50;;
40256;SDS011;25977;45.462;9.210;2023-11-18T07:11:02;2.75;;;1.50;;
40256;SDS011;25977;45.462;9.210;2023-11-18T07:13:28;1.98;;;1.52;;
40256;SDS011;25977;45.462;9.210;2023-11-18T07:15:54;1.17;;;1.10;;
40256;SDS011;25977;45.462;9.210;2023-11-18T07:18:22;6.15;;;1.83;;
40256;SDS011;25977;45.462;9.210;2023-11-18T07:20:49;4.97;;;2.10;;
40256;SDS011;25977;45.462;9.210;2023-11-18T07:23:16;6.03;;;2.65;;
40256;SDS011;25977;45.462;9.210;2023-11-18T07:25:43;2.80;;;1.80;;
40256;SDS011;25977;45.462;9.210;2023-11-18T07:28:10;8.68;;;1.70;;
40256;SDS011;25977;45.462;9.210;2023-11-18T07:30:42;3.35;;;2.00;;
40256;SDS011;25977;45.462;9.210;2023-11-18T07:33:18;16.83;;;3.20;;
40256;SDS011;25977;45.462;9.210;2023-11-18T07:35:47;13.50;;;2.33;;
40256;SDS011;25977;45.462;9.210;2023-11-18T07:38:13;5.07;;;3.75;;
40256;SDS011;25977;45.462;9.210;2023-11-18T07:40:45;9.13;;;2.33;;
40256;SDS011;25977;45.462;9.210;2023-11-18T07:43:17;7.03;;;2.63;;
40256;SDS011;25977;45.462;9.210;2023-11-18T07:45:46;2.53;;;2.33;;
40256;SDS011;25977;45.462;9.210;2023-11-18T07:48:15;10.50;;;2.08;;
40256;SDS011;25977;45.462;9.210;2023-11-18T07:50:42;7.47;;;2.40;;
40256;SDS011;25977;45.462;9.210;2023-11-18T07:53:12;3.28;;;2.17;;
40256;SDS011;25977;45.462;9.210;2023-11-18T07:55:38;2.88;;;2.38;;
40256;SDS011;25977;45.462;9.210;2023-11-18T07:58:08;6.45;;;2.70;;
40256;SDS011;25977;45.462;9.210;2023-11-18T08:00:44;8.05;;;3.72;;
40256;SDS011;25977;45.462;9.210;2023-11-18T08:03:14;7.60;;;3.70;;
40256;SDS011;25977;45.462;9.210;2023-11-18T08:05:40;5.53;;;3.95;;
40256;SDS011;25977;45.462;9.210;2023-11-18T08:08:13;9.70;;;3.25;;
40256;SDS011;25977;45.462;9.210;2023-11-18T08:10:42;8.35;;;3.20;;
40256;SDS011;25977;45.462;9.210;2023-11-18T08:13:10;12.80;;;3.63;;
40256;SDS011;25977;45.462;9.210;2023-11-18T08:15:39;6.70;;;2.80;;
40256;SDS011;25977;45.462;9.210;2023-11-18T08:18:06;8.93;;;3.92;;
40256;SDS011;25977;45.462;9.210;2023-11-18T08:20:33;3.67;;;2.63;;
40256;SDS011;25977;45.462;9.210;2023-11-18T08:22:59;4.95;;;2.75;;
40256;SDS011;25977;45.462;9.210;2023-11-18T08:25:24;7.78;;;2.72;;
40256;SDS011;25977;45.462;9.210;2023-11-18T08:27:51;4.10;;;3.00;;
40256;SDS011;25977;45.462;9.210;2023-11-18T08:30:17;4.47;;;3.00;;
40256;SDS011;25977;45.462;9.210;2023-11-18T08:32:44;7.82;;;2.97;;
40256;SDS011;25977;45.462;9.210;2023-11-18T08:35:10;3.53;;;2.78;;
40256;SDS011;25977;45.462;9.210;2023-11-18T08:37:44;6.25;;;2.58;;
40256;SDS011;25977;45.462;9.210;2023-11-18T08:40:11;7.63;;;2.58;;
40256;SDS011;25977;45.462;9.210;2023-11-18T08:42:41;7.97;;;2.63;;
40256;SDS011;25977;45.462;9.210;2023-11-18T08:45:13;7.78;;;2.63;;
40256;SDS011;25977;45.462;9.210;2023-11-18T08:47:44;4.45;;;2.80;;
40256;SDS011;25977;45.462;9.210;2023-11-18T08:50:17;10.80;;;2.67;;
40256;SDS011;25977;45.462;9.210;2023-11-18T08:52:43;11.00;;;2.97;;
40256;SDS011;25977;45.462;9.210;2023-11-18T08:55:23;5.15;;;3.15;;
40256;SDS011;25977;45.462;9.210;2023-11-18T08:58:03;3.63;;;3.08;;
40256;SDS011;25977;45.462;9.210;2023-11-18T09:00:41;4.72;;;2.45;;
40256;SDS011;25977;45.462;9.210;2023-11-18T09:03:10;4.63;;;2.65;;
40256;SDS011;25977;45.462;9.210;2023-11-18T09:05:48;5.43;;;2.72;;
40256;SDS011;25977;45.462;9.210;2023-11-18T09:10:54;3.67;;;2.10;;
40256;SDS011;25977;45.462;9.210;2023-11-18T09:13:21;8.82;;;2.35;;
40256;SDS011;25977;45.462;9.210;2023-11-18T09:15:54;4.00;;;2.40;;
40256;SDS011;25977;45.462;9.210;2023-11-18T09:18:25;2.33;;;1.85;;
40256;SDS011;25977;45.462;9.210;2023-11-18T09:20:53;4.70;;;2.20;;
40256;SDS011;25977;45.462;9.210;2023-11-18T09:23:20;3.00;;;2.70;;
40256;SDS011;25977;45.462;9.210;2023-11-18T09:25:48;6.13;;;2.83;;
40256;SDS011;25977;45.462;9.210;2023-11-18T09:28:15;8.70;;;2.60;;
40256;SDS011;25977;45.462;9.210;2023-11-18T09:30:45;4.00;;;2.95;;
40256;SDS011;25977;45.462;9.210;2023-11-18T09:33:23;4.85;;;2.95;;
40256;SDS011;25977;45.462;9.210;2023-11-18T09:35:54;10.55;;;2.67;;
40256;SDS011;25977;45.462;9.210;2023-11-18T09:40:53;2.90;;;2.35;;
40256;SDS011;25977;45.462;9.210;2023-11-18T09:43:19;7.10;;;2.53;;
40256;SDS011;25977;45.462;9.210;2023-11-18T09:45:53;2.15;;;1.95;;
40256;SDS011;25977;45.462;9.210;2023-11-18T09:48:20;5.03;;;2.78;;
40256;SDS011;25977;45.462;9.210;2023-11-18T09:50:51;3.22;;;1.90;;
40256;SDS011;25977;45.462;9.210;2023-11-18T09:53:19;2.70;;;1.90;;
40256;SDS011;25977;45.462;9.210;2023-11-18T09:55:49;3.42;;;2.25;;
40256;SDS011;25977;45.462;9.210;2023-11-18T09:58:20;9.60;;;2.58;;
40256;SDS011;25977;45.462;9.210;2023-11-18T10:00:49;2.17;;;1.88;;
40256;SDS011;25977;45.462;9.210;2023-11-18T10:03:22;5.03;;;1.92;;
40256;SDS011;25977;45.462;9.210;2023-11-18T10:05:48;3.63;;;1.50;;
40256;SDS011;25977;45.462;9.210;2023-11-18T10:08:18;3.08;;;1.60;;
40256;SDS011;25977;45.462;9.210;2023-11-18T10:11:01;3.85;;;1.67;;
40256;SDS011;25977;45.462;9.210;2023-11-18T10:13:33;4.82;;;2.17;;
40256;SDS011;25977;45.462;9.210;2023-11-18T10:16:00;3.70;;;2.00;;
40256;SDS011;25977;45.462;9.210;2023-11-18T10:18:30;3.08;;;1.55;;
40256;SDS011;25977;45.462;9.210;2023-11-18T10:21:00;6.03;;;2.08;;
40256;SDS011;25977;45.462;9.210;2023-11-18T10:23:26;3.40;;;1.63;;
40256;SDS011;25977;45.462;9.210;2023-11-18T10:25:54;2.45;;;2.25;;
40256;SDS011;25977;45.462;9.210;2023-11-18T10:31:01;2.80;;;1.80;;
40256;SDS011;25977;45.462;9.210;2023-11-18T10:33:36;4.78;;;2.00;;
40256;SDS011;25977;45.462;9.210;2023-11-18T10:36:03;2.42;;;2.22;;
40256;SDS011;25977;45.462;9.210;2023-11-18T10:38:32;2.80;;;2.10;;
40256;SDS011;25977;45.462;9.210;2023-11-18T10:41:04;2.50;;;2.33;;
40256;SDS011;25977;45.462;9.210;2023-11-18T10:43:30;2.00;;;1.90;;
40256;SDS011;25977;45.462;9.210;2023-11-18T10:46:04;5.32;;;1.88;;
40256;SDS011;25977;45.462;9.210;2023-11-18T10:51:12;2.65;;;1.73;;
40256;SDS011;25977;45.462;9.210;2023-11-18T10:56:26;6.38;;;1.83;;
40256;SDS011;25977;45.462;9.210;2023-11-18T10:59:04;4.95;;;2.05;;
40256;SDS011;25977;45.462;9.210;2023-11-18T11:01:31;3.05;;;2.25;;
40256;SDS011;25977;45.462;9.210;2023-11-18T11:04:07;3.72;;;2.75;;
40256;SDS011;25977;45.462;9.210;2023-11-18T11:06:45;3.22;;;2.45;;
40256;SDS011;25977;45.462;9.210;2023-11-18T11:09:20;4.13;;;1.58;;
40256;SDS011;25977;45.462;9.210;2023-11-18T11:11:53;3.15;;;2.53;;
40256;SDS011;25977;45.462;9.210;2023-11-18T11:14:24;2.13;;;2.03;;
40256;SDS011;25977;45.462;9.210;2023-11-18T11:17:00;2.67;;;1.85;;
40256;SDS011;25977;45.462;9.210;2023-11-18T11:22:21;2.50;;;2.10;;
40256;SDS011;25977;45.462;9.210;2023-11-18T11:25:00;6.07;;;2.45;;
40256;SDS011;25977;45.462;9.210;2023-11-18T11:28:34;4.57;;;1.90;;
40256;SDS011;25977;45.462;9.210;2023-11-18T11:30:45;3.65;;;2.13;;
40256;SDS011;25977;45.462;9.210;2023-11-18T11:33:25;2.83;;;2.50;;
40256;SDS011;25977;45.462;9.210;2023-11-18T11:36:15;4.60;;;2.15;;
40256;SDS011;25977;45.462;9.210;2023-11-18T11:38:49;3.72;;;2.13;;
40256;SDS011;25977;45.462;9.210;2023-11-18T11:41:17;4.45;;;1.88;;
40256;SDS011;25977;45.462;9.210;2023-11-18T11:43:51;6.25;;;2.28;;
40256;SDS011;25977;45.462;9.210;2023-11-18T11:46:21;3.20;;;2.05;;
40256;SDS011;25977;45.462;9.210;2023-11-18T11:48:49;2.45;;;2.20;;
40256;SDS011;25977;45.462;9.210;2023-11-18T11:54:02;3.20;;;1.63;;
40256;SDS011;25977;45.462;9.210;2023-11-18T11:56:44;3.55;;;1.85;;
40256;SDS011;25977;45.462;9.210;2023-11-18T12:02:18;1.90;;;1.10;;
40256;SDS011;25977;45.462;9.210;2023-11-18T12:04:51;16.30;;;1.98;;
40256;SDS011;25977;45.462;9.210;2023-11-18T12:07:19;1.73;;;1.30;;
40256;SDS011;25977;45.462;9.210;2023-11-18T12:09:48;2.20;;;1.45;;
40256;SDS011;25977;45.462;9.210;2023-11-18T12:12:22;3.10;;;1.40;;
40256;SDS011;25977;45.462;9.210;2023-11-18T12:14:53;1.77;;;1.30;;
40256;SDS011;25977;45.462;9.210;2023-11-18T12:17:21;1.45;;;1.35;;
40256;SDS011;25977;45.462;9.210;2023-11-18T12:19:49;1.20;;;0.88;;
40256;SDS011;25977;45.462;9.210;2023-11-18T12:22:17;1.33;;;1.00;;
40256;SDS011;25977;45.462;9.210;2023-11-18T12:30:05;1.75;;;1.42;;
40256;SDS011;25977;45.462;9.210;2023-11-18T12:35:21;2.25;;;1.27;;
40256;SDS011;25977;45.462;9.210;2023-11-18T12:40:53;1.00;;;0.90;;
40256;SDS011;25977;45.462;9.210;2023-11-18T12:43:46;1.33;;;1.23;;
40256;SDS011;25977;45.462;9.210;2023-11-18T12:49:07;0.82;;;0.82;;
40256;SDS011;25977;45.462;9.210;2023-11-18T12:54:09;1.88;;;1.05;;
40256;SDS011;25977;45.462;9.210;2023-11-18T12:56:37;1.13;;;1.00;;
40256;SDS011;25977;45.462;9.210;2023-11-18T12:59:04;2.08;;;1.63;;
40256;SDS011;25977;45.462;9.210;2023-11-18T13:01:34;1.25;;;0.70;;
40256;SDS011;25977;45.462;9.210;2023-11-18T13:04:04;2.28;;;0.70;;
40256;SDS011;25977;45.462;9.210;2023-11-18T13:06:30;0.70;;;0.60;;
40256;SDS011;25977;45.462;9.210;2023-11-18T13:08:55;0.95;;;0.80;;
40256;SDS011;25977;45.462;9.210;2023-11-18T13:11:23;0.80;;;0.80;;
40256;SDS011;25977;45.462;9.210;2023-11-18T13:13:51;1.80;;;0.70;;
40256;SDS011;25977;45.462;9.210;2023-11-18T13:16:17;0.60;;;0.60;;
40256;SDS011;25977;45.462;9.210;2023-11-18T13:18:47;8.20;;;2.05;;
40256;SDS011;25977;45.462;9.210;2023-11-18T13:21:17;1.75;;;0.70;;
40256;SDS011;25977;45.462;9.210;2023-11-18T13:23:47;0.80;;;0.73;;
40256;SDS011;25977;45.462;9.210;2023-11-18T13:26:14;0.93;;;0.93;;
40256;SDS011;25977;45.462;9.210;2023-11-18T13:28:41;0.57;;;0.57;;
40256;SDS011;25977;45.462;9.210;2023-11-18T13:31:08;1.73;;;0.63;;
40256;SDS011;25977;45.462;9.210;2023-11-18T13:33:42;0.68;;;0.50;;
40256;SDS011;25977;45.462;9.210;2023-11-18T13:36:08;0.63;;;0.63;;
40256;SDS011;25977;45.462;9.210;2023-11-18T13:38:37;1.55;;;0.57;;
40256;SDS011;25977;45.462;9.210;2023-11-18T13:41:04;0.75;;;0.75;;
40256;SDS011;25977;45.462;9.210;2023-11-18T13:46:14;0.90;;;0.50;;
40256;SDS011;25977;45.462;9.210;2023-11-18T13:48:46;1.30;;;0.50;;
40256;SDS011;25977;45.462;9.210;2023-11-18T13:51:14;0.40;;;0.40;;
40256;SDS011;25977;45.462;9.210;2023-11-18T13:53:41;2.60;;;0.77;;
40256;SDS011;25977;45.462;9.210;2023-11-18T13:56:12;0.77;;;0.40;;
40256;SDS011;25977;45.462;9.210;2023-11-18T13:58:38;2.25;;;0.60;;
40256;SDS011;25977;45.462;9.210;2023-11-18T14:01:08;0.98;;;0.90;;
40256;SDS011;25977;45.462;9.210;2023-11-18T14:03:36;0.82;;;0.43;;
40256;SDS011;25977;45.462;9.210;2023-11-18T14:06:03;1.25;;;0.80;;
40256;SDS011;25977;45.462;9.210;2023-11-18T14:08:31;1.40;;;0.52;;
40256;SDS011;25977;45.462;9.210;2023-11-18T14:10:59;1.02;;;0.73;;
40256;SDS011;25977;45.462;9.210;2023-11-18T14:13:25;0.80;;;0.80;;
40256;SDS011;25977;45.462;9.210;2023-11-18T14:15:56;1.10;;;1.10;;
40256;SDS011;25977;45.462;9.210;2023-11-18T14:18:22;0.57;;;0.50;;
40256;SDS011;25977;45.462;9.210;2023-11-18T14:20:48;2.92;;;0.68;;
40256;SDS011;25977;45.462;9.210;2023-11-18T14:23:15;0.70;;;0.70;;
40256;SDS011;25977;45.462;9.210;2023-11-18T14:25:41;0.57;;;0.57;;
40256;SDS011;25977;45.462;9.210;2023-11-18T14:28:07;1.45;;;0.60;;
40256;SDS011;25977;45.462;9.210;2023-11-18T14:30:36;1.27;;;0.70;;
40256;SDS011;25977;45.462;9.210;2023-11-18T14:33:01;1.02;;;0.80;;
40256;SDS011;25977;45.462;9.210;2023-11-18T14:35:29;0.98;;;0.80;;
40256;SDS011;25977;45.462;9.210;2023-11-18T14:37:54;1.23;;;1.02;;
40256;SDS011;25977;45.462;9.210;2023-11-18T14:40:21;2.03;;;0.50;;
40256;SDS011;25977;45.462;9.210;2023-11-18T14:42:49;1.10;;;1.00;;
40256;SDS011;25977;45.462;9.210;2023-11-18T14:45:16;0.75;;;0.75;;
40256;SDS011;25977;45.462;9.210;2023-11-18T14:47:42;0.50;;;0.50;;
40256;SDS011;25977;45.462;9.210;2023-11-18T14:50:13;0.93;;;0.55;;
40256;SDS011;25977;45.462;9.210;2023-11-18T14:52:45;1.08;;;1.08;;
40256;SDS011;25977;45.462;9.210;2023-11-18T14:55:12;1.27;;;1.17;;
40256;SDS011;25977;45.462;9.210;2023-11-18T14:57:41;0.90;;;0.90;;
40256;SDS011;25977;45.462;9.210;2023-11-18T15:00:09;1.83;;;0.60;;
40256;SDS011;25977;45.462;9.210;2023-11-18T15:02:50;1.77;;;1.10;;
40256;SDS011;25977;45.462;9.210;2023-11-18T15:05:17;2.10;;;0.95;;
40256;SDS011;25977;45.462;9.210;2023-11-18T15:07:47;1.02;;;0.90;;
40256;SDS011;25977;45.462;9.210;2023-11-18T15:10:15;1.10;;;1.00;;
40256;SDS011;25977;45.462;9.210;2023-11-18T15:12:45;2.20;;;1.33;;
40256;SDS011;25977;45.462;9.210;2023-11-18T15:15:24;1.98;;;0.90;;
40256;SDS011;25977;45.462;9.210;2023-11-18T15:18:00;4.93;;;1.50;;
40256;SDS011;25977;45.462;9.210;2023-11-18T15:20:33;1.63;;;0.85;;
40256;SDS011;25977;45.462;9.210;2023-11-18T15:23:00;1.58;;;1.48;;
40256;SDS011;25977;45.462;9.210;2023-11-18T15:25:26;5.80;;;1.90;;
40256;SDS011;25977;45.462;9.210;2023-11-18T15:27:52;1.85;;;1.52;;
40256;SDS011;25977;45.462;9.210;2023-11-18T15:30:18;1.63;;;1.25;;
40256;SDS011;25977;45.462;9.210;2023-11-18T15:32:46;1.30;;;0.98;;
40256;SDS011;25977;45.462;9.210;2023-11-18T15:35:12;1.63;;;0.85;;
40256;SDS011;25977;45.462;9.210;2023-11-18T15:37:41;2.08;;;1.40;;
40256;SDS011;25977;45.462;9.210;2023-11-18T15:40:11;1.20;;;1.10;;
40256;SDS011;25977;45.462;9.210;2023-11-18T15:42:42;3.10;;;1.08;;